sensor_id;sensor_type;location;lat;lon;timestamp;temperature;humidity
17879;DHT22;9065;51.050;13.758;2022-12-07T00:01:23;5.50;99.90
17879;DHT22;9065;51.050;13.758;2022-12-07T00:03:53;5.50;99.90
17879;DHT22;9065;51.050;13.758;2022-12-07T00:06:22;5.50;99.90
17879;DHT22;9065;51.050;13.758;2022-12-07T00:08:58;5.50;99.90
17879;DHT22;9065;51.050;13.758;2022-12-07T00:11:26;5.50;99.90
17879;DHT22;9065;51.050;13.758;2022-12-07T00:13:54;5.40;99.90
17879;DHT22;9065;51.050;13.758;2022-12-07T00:16:28;5.40;99.90
17879;DHT22;9065;51.050;13.758;2022-12-07T00:18:55;5.40;99.90
17879;DHT22;9065;51.050;13.758;2022-12-07T00:21:25;5.40;99.90
17879;DHT22;9065;51.050;13.758;2022-12-07T00:23:53;5.50;99.90
17879;DHT22;9065;51.050;13.758;2022-12-07T00:26:23;5.60;99.90
17879;DHT22;9065;51.050;13.758;2022-12-07T00:28:55;5.60;99.90
17879;DHT22;9065;51.050;13.758;2022-12-07T00:31:24;5.50;99.90
17879;DHT22;9065;51.050;13.758;2022-12-07T00:33:54;5.40;99.90
17879;DHT22;9065;51.050;13.758;2022-12-07T00:36:23;5.40;99.90
17879;DHT22;9065;51.050;13.758;2022-12-07T00:38:50;5.30;99.90
17879;DHT22;9065;51.050;13.758;2022-12-07T00:41:19;5.30;99.90
17879;DHT22;9065;51.050;13.758;2022-12-07T00:43:48;5.30;99.90
17879;DHT22;9065;51.050;13.758;2022-12-07T00:46:17;5.40;99.90
17879;DHT22;9065;51.050;13.758;2022-12-07T00:48:45;5.40;99.90
17879;DHT22;9065;51.050;13.758;2022-12-07T00:51:16;5.40;99.90
17879;DHT22;9065;51.050;13.758;2022-12-07T00:53:44;5.40;99.90
17879;DHT22;9065;51.050;13.758;2022-12-07T00:56:20;5.40;99.90
17879;DHT22;9065;51.050;13.758;2022-12-07T00:58:50;5.40;99.90
17879;DHT22;9065;51.050;13.758;2022-12-07T01:01:17;5.50;99.90
17879;DHT22;9065;51.050;13.758;2022-12-07T01:03:44;5.50;99.90
17879;DHT22;9065;51.050;13.758;2022-12-07T01:06:15;5.50;99.90
17879;DHT22;9065;51.050;13.758;2022-12-07T01:08:43;5.50;99.90
17879;DHT22;9065;51.050;13.758;2022-12-07T01:11:15;5.50;99.90
17879;DHT22;9065;51.050;13.758;2022-12-07T01:13:43;5.50;99.90
17879;DHT22;9065;51.050;13.758;2022-12-07T01:16:12;5.60;99.90
17879;DHT22;9065;51.050;13.758;2022-12-07T01:18:39;5.70;99.90
17879;DHT22;9065;51.050;13.758;2022-12-07T01:21:07;5.70;99.90
17879;DHT22;9065;51.050;13.758;2022-12-07T01:23:37;5.70;99.90
17879;DHT22;9065;51.050;13.758;2022-12-07T01:26:07;5.70;99.90
17879;DHT22;9065;51.050;13.758;2022-12-07T01:28:41;5.60;99.90
17879;DHT22;9065;51.050;13.758;2022-12-07T01:31:10;5.70;99.90
17879;DHT22;9065;51.050;13.758;2022-12-07T01:33:38;5.70;99.90
17879;DHT22;9065;51.050;13.758;2022-12-07T01:36:08;5.70;99.90
17879;DHT22;9065;51.050;13.758;2022-12-07T01:38:39;5.70;99.90
17879;DHT22;9065;51.050;13.758;2022-12-07T01:41:06;5.70;99.90
17879;DHT22;9065;51.050;13.758;2022-12-07T01:43:34;5.80;99.90
17879;DHT22;9065;51.050;13.758;2022-12-07T01:46:02;5.70;99.90
17879;DHT22;9065;51.050;13.758;2022-12-07T01:48:32;5.70;99.90
17879;DHT22;9065;51.050;13.758;2022-12-07T01:51:02;5.70;99.90
17879;DHT22;9065;51.050;13.758;2022-12-07T01:53:40;5.80;99.90
17879;DHT22;9065;51.050;13.758;2022-12-07T01:56:10;5.70;99.90
17879;DHT22;9065;51.050;13.758;2022-12-07T01:58:38;5.70;99.90
17879;DHT22;9065;51.050;13.758;2022-12-07T02:01:06;5.60;99.90
17879;DHT22;9065;51.050;13.758;2022-12-07T02:03:36;5.60;99.90
17879;DHT22;9065;51.050;13.758;2022-12-07T02:06:05;5.50;99.90
17879;DHT22;9065;51.050;13.758;2022-12-07T02:08:32;5.60;99.90
17879;DHT22;9065;51.050;13.758;2022-12-07T02:11:01;5.60;99.90
17879;DHT22;9065;51.050;13.758;2022-12-07T02:13:30;5.60;99.90
17879;DHT22;9065;51.050;13.758;2022-12-07T02:16:08;5.60;99.90
17879;DHT22;9065;51.050;13.758;2022-12-07T02:18:48;5.70;99.90
17879;DHT22;9065;51.050;13.758;2022-12-07T02:21:25;5.60;99.90
17879;DHT22;9065;51.050;13.758;2022-12-07T02:24:25;5.50;99.90
17879;DHT22;9065;51.050;13.758;2022-12-07T02:27:22;5.30;99.90
17879;DHT22;9065;51.050;13.758;2022-12-07T02:29:58;5.40;99.90
17879;DHT22;9065;51.050;13.758;2022-12-07T02:32:32;5.30;99.90
17879;DHT22;9065;51.050;13.758;2022-12-07T02:35:05;5.30;99.90
17879;DHT22;9065;51.050;13.758;2022-12-07T02:37:36;5.30;99.90
17879;DHT22;9065;51.050;13.758;2022-12-07T02:40:17;5.20;99.90
17879;DHT22;9065;51.050;13.758;2022-12-07T02:42:50;5.20;99.90
17879;DHT22;9065;51.050;13.758;2022-12-07T02:45:22;5.10;99.90
17879;DHT22;9065;51.050;13.758;2022-12-07T02:47:56;5.00;99.90
17879;DHT22;9065;51.050;13.758;2022-12-07T02:50:24;5.00;99.90
17879;DHT22;9065;51.050;13.758;2022-12-07T02:52:51;5.00;99.90
17879;DHT22;9065;51.050;13.758;2022-12-07T02:55:23;5.00;99.90
17879;DHT22;9065;51.050;13.758;2022-12-07T02:58:06;5.00;99.90
17879;DHT22;9065;51.050;13.758;2022-12-07T03:00:44;5.00;99.90
17879;DHT22;9065;51.050;13.758;2022-12-07T03:03:19;5.10;99.90
17879;DHT22;9065;51.050;13.758;2022-12-07T03:05:54;5.00;99.90
17879;DHT22;9065;51.050;13.758;2022-12-07T03:08:34;5.00;99.90
17879;DHT22;9065;51.050;13.758;2022-12-07T03:11:04;5.10;99.90
17879;DHT22;9065;51.050;13.758;2022-12-07T03:13:35;5.30;99.90
17879;DHT22;9065;51.050;13.758;2022-12-07T03:16:09;5.30;99.90
17879;DHT22;9065;51.050;13.758;2022-12-07T03:18:45;5.30;99.90
17879;DHT22;9065;51.050;13.758;2022-12-07T03:21:17;5.30;99.90
17879;DHT22;9065;51.050;13.758;2022-12-07T03:23:48;5.30;99.90
17879;DHT22;9065;51.050;13.758;2022-12-07T03:26:17;5.30;99.90
17879;DHT22;9065;51.050;13.758;2022-12-07T03:28:50;5.30;99.90
17879;DHT22;9065;51.050;13.758;2022-12-07T03:31:22;5.30;99.90
17879;DHT22;9065;51.050;13.758;2022-12-07T03:33:56;5.30;99.90
17879;DHT22;9065;51.050;13.758;2022-12-07T03:36:30;5.30;99.90
17879;DHT22;9065;51.050;13.758;2022-12-07T03:39:03;5.30;99.90
17879;DHT22;9065;51.050;13.758;2022-12-07T03:41:36;5.30;99.90
17879;DHT22;9065;51.050;13.758;2022-12-07T03:44:04;5.20;99.90
17879;DHT22;9065;51.050;13.758;2022-12-07T03:46:41;5.10;99.90
17879;DHT22;9065;51.050;13.758;2022-12-07T03:49:15;5.10;99.90
17879;DHT22;9065;51.050;13.758;2022-12-07T03:51:46;5.10;99.90
17879;DHT22;9065;51.050;13.758;2022-12-07T03:54:21;5.20;99.90
17879;DHT22;9065;51.050;13.758;2022-12-07T03:56:50;5.10;99.90
17879;DHT22;9065;51.050;13.758;2022-12-07T03:59:18;5.10;99.90
17879;DHT22;9065;51.050;13.758;2022-12-07T04:01:53;5.00;99.90
17879;DHT22;9065;51.050;13.758;2022-12-07T04:04:20;5.00;99.90
17879;DHT22;9065;51.050;13.758;2022-12-07T04:06:47;5.10;99.90
17879;DHT22;9065;51.050;13.758;2022-12-07T04:09:15;5.10;99.90
17879;DHT22;9065;51.050;13.758;2022-12-07T04:11:42;5.10;99.90
17879;DHT22;9065;51.050;13.758;2022-12-07T04:14:09;5.10;99.90
17879;DHT22;9065;51.050;13.758;2022-12-07T04:16:44;5.30;99.90
17879;DHT22;9065;51.050;13.758;2022-12-07T04:19:13;5.30;99.90
17879;DHT22;9065;51.050;13.758;2022-12-07T04:21:40;5.50;99.90
17879;DHT22;9065;51.050;13.758;2022-12-07T04:24:08;5.50;99.90
17879;DHT22;9065;51.050;13.758;2022-12-07T04:26:35;5.50;99.90
17879;DHT22;9065;51.050;13.758;2022-12-07T04:29:02;5.40;99.90
17879;DHT22;9065;51.050;13.758;2022-12-07T04:31:28;5.30;99.90
17879;DHT22;9065;51.050;13.758;2022-12-07T04:33:55;5.10;99.90
17879;DHT22;9065;51.050;13.758;2022-12-07T04:36:25;5.20;99.90
17879;DHT22;9065;51.050;13.758;2022-12-07T04:38:53;5.20;99.90
17879;DHT22;9065;51.050;13.758;2022-12-07T04:41:21;5.30;99.90
17879;DHT22;9065;51.050;13.758;2022-12-07T04:43:53;5.30;99.90
17879;DHT22;9065;51.050;13.758;2022-12-07T04:46:23;5.30;99.90
17879;DHT22;9065;51.050;13.758;2022-12-07T04:48:52;5.30;99.90
17879;DHT22;9065;51.050;13.758;2022-12-07T04:51:21;5.10;99.90
17879;DHT22;9065;51.050;13.758;2022-12-07T04:53:51;5.20;99.90
17879;DHT22;9065;51.050;13.758;2022-12-07T04:56:21;5.20;99.90
17879;DHT22;9065;51.050;13.758;2022-12-07T04:58:50;5.10;99.90
17879;DHT22;9065;51.050;13.758;2022-12-07T05:01:20;5.10;99.90
17879;DHT22;9065;51.050;13.758;2022-12-07T05:03:47;5.00;99.90
17879;DHT22;9065;51.050;13.758;2022-12-07T05:06:24;4.90;99.90
17879;DHT22;9065;51.050;13.758;2022-12-07T05:08:54;4.90;99.90
17879;DHT22;9065;51.050;13.758;2022-12-07T05:11:21;4.90;99.90
17879;DHT22;9065;51.050;13.758;2022-12-07T05:14:11;4.90;99.90
17879;DHT22;9065;51.050;13.758;2022-12-07T05:16:39;4.90;99.90
17879;DHT22;9065;51.050;13.758;2022-12-07T05:19:08;5.00;99.90
17879;DHT22;9065;51.050;13.758;2022-12-07T05:21:36;4.90;99.90
17879;DHT22;9065;51.050;13.758;2022-12-07T05:24:06;4.90;99.90
17879;DHT22;9065;51.050;13.758;2022-12-07T05:26:34;4.90;99.90
17879;DHT22;9065;51.050;13.758;2022-12-07T05:29:02;4.90;99.90
17879;DHT22;9065;51.050;13.758;2022-12-07T05:31:29;4.90;99.90
17879;DHT22;9065;51.050;13.758;2022-12-07T05:33:57;4.90;99.90
17879;DHT22;9065;51.050;13.758;2022-12-07T05:36:25;4.90;99.90
17879;DHT22;9065;51.050;13.758;2022-12-07T05:38:54;5.00;99.90
17879;DHT22;9065;51.050;13.758;2022-12-07T05:41:22;5.10;99.90
17879;DHT22;9065;51.050;13.758;2022-12-07T05:44:07;5.10;99.90
17879;DHT22;9065;51.050;13.758;2022-12-07T05:46:34;5.20;99.90
17879;DHT22;9065;51.050;13.758;2022-12-07T05:49:01;5.20;99.90
17879;DHT22;9065;51.050;13.758;2022-12-07T05:51:28;5.20;99.90
17879;DHT22;9065;51.050;13.758;2022-12-07T05:53:56;5.20;99.90
17879;DHT22;9065;51.050;13.758;2022-12-07T05:56:25;5.20;99.90
17879;DHT22;9065;51.050;13.758;2022-12-07T05:58:58;5.30;99.90
17879;DHT22;9065;51.050;13.758;2022-12-07T06:01:43;5.20;99.90
17879;DHT22;9065;51.050;13.758;2022-12-07T06:04:11;5.20;99.90
17879;DHT22;9065;51.050;13.758;2022-12-07T06:06:38;5.20;99.90
17879;DHT22;9065;51.050;13.758;2022-12-07T06:09:06;5.20;99.90
17879;DHT22;9065;51.050;13.758;2022-12-07T06:11:38;5.20;99.90
17879;DHT22;9065;51.050;13.758;2022-12-07T06:14:24;5.30;99.90
17879;DHT22;9065;51.050;13.758;2022-12-07T06:16:51;5.40;99.90
17879;DHT22;9065;51.050;13.758;2022-12-07T06:19:25;5.50;99.90
17879;DHT22;9065;51.050;13.758;2022-12-07T06:21:57;5.50;99.90
17879;DHT22;9065;51.050;13.758;2022-12-07T06:24:24;5.30;99.90
17879;DHT22;9065;51.050;13.758;2022-12-07T06:26:59;5.30;99.90
17879;DHT22;9065;51.050;13.758;2022-12-07T06:29:51;5.20;99.90
17879;DHT22;9065;51.050;13.758;2022-12-07T06:32:40;5.30;99.90
17879;DHT22;9065;51.050;13.758;2022-12-07T06:35:15;5.30;99.90
17879;DHT22;9065;51.050;13.758;2022-12-07T06:37:57;5.30;99.90
17879;DHT22;9065;51.050;13.758;2022-12-07T06:40:32;5.40;99.90
17879;DHT22;9065;51.050;13.758;2022-12-07T06:43:24;5.50;99.90
17879;DHT22;9065;51.050;13.758;2022-12-07T06:45:51;5.60;99.90
17879;DHT22;9065;51.050;13.758;2022-12-07T06:48:19;5.60;99.90
17879;DHT22;9065;51.050;13.758;2022-12-07T06:50:47;5.70;99.90
17879;DHT22;9065;51.050;13.758;2022-12-07T06:53:16;5.70;99.90
17879;DHT22;9065;51.050;13.758;2022-12-07T06:55:43;5.80;99.90
17879;DHT22;9065;51.050;13.758;2022-12-07T06:58:11;5.80;99.90
17879;DHT22;9065;51.050;13.758;2022-12-07T07:00:47;5.80;99.90
17879;DHT22;9065;51.050;13.758;2022-12-07T07:03:18;5.80;99.90
17879;DHT22;9065;51.050;13.758;2022-12-07T07:05:47;5.80;99.90
17879;DHT22;9065;51.050;13.758;2022-12-07T07:08:25;5.70;99.90
17879;DHT22;9065;51.050;13.758;2022-12-07T07:10:53;5.60;99.90
17879;DHT22;9065;51.050;13.758;2022-12-07T07:13:21;5.60;99.90
17879;DHT22;9065;51.050;13.758;2022-12-07T07:15:49;5.60;99.90
17879;DHT22;9065;51.050;13.758;2022-12-07T07:18:18;5.60;99.90
17879;DHT22;9065;51.050;13.758;2022-12-07T07:20:45;5.50;99.90
17879;DHT22;9065;51.050;13.758;2022-12-07T07:23:12;5.40;99.90
17879;DHT22;9065;51.050;13.758;2022-12-07T07:25:40;5.30;99.90
17879;DHT22;9065;51.050;13.758;2022-12-07T07:28:12;5.30;99.90
17879;DHT22;9065;51.050;13.758;2022-12-07T07:30:49;5.30;99.90
17879;DHT22;9065;51.050;13.758;2022-12-07T07:37:04;5.30;99.90
17879;DHT22;9065;51.050;13.758;2022-12-07T07:39:31;5.30;99.90
17879;DHT22;9065;51.050;13.758;2022-12-07T07:41:59;5.30;99.90
17879;DHT22;9065;51.050;13.758;2022-12-07T07:44:34;5.20;99.90
17879;DHT22;9065;51.050;13.758;2022-12-07T07:47:02;5.30;99.90
17879;DHT22;9065;51.050;13.758;2022-12-07T07:49:31;5.30;99.90
17879;DHT22;9065;51.050;13.758;2022-12-07T07:52:08;5.30;99.90
17879;DHT22;9065;51.050;13.758;2022-12-07T07:54:35;5.30;99.90
17879;DHT22;9065;51.050;13.758;2022-12-07T07:57:03;5.30;99.90
17879;DHT22;9065;51.050;13.758;2022-12-07T07:59:30;5.40;99.90
17879;DHT22;9065;51.050;13.758;2022-12-07T08:02:01;5.50;99.90
17879;DHT22;9065;51.050;13.758;2022-12-07T08:04:29;5.60;99.90
17879;DHT22;9065;51.050;13.758;2022-12-07T08:06:57;5.60;99.90
17879;DHT22;9065;51.050;13.758;2022-12-07T08:09:27;5.60;99.90
17879;DHT22;9065;51.050;13.758;2022-12-07T08:11:55;5.60;99.90
17879;DHT22;9065;51.050;13.758;2022-12-07T08:14:24;5.70;99.90
17879;DHT22;9065;51.050;13.758;2022-12-07T08:16:53;5.80;99.90
17879;DHT22;9065;51.050;13.758;2022-12-07T08:19:21;5.80;99.90
17879;DHT22;9065;51.050;13.758;2022-12-07T08:21:49;5.80;99.90
17879;DHT22;9065;51.050;13.758;2022-12-07T08:24:16;5.90;99.90
17879;DHT22;9065;51.050;13.758;2022-12-07T08:26:53;5.80;99.90
17879;DHT22;9065;51.050;13.758;2022-12-07T08:29:20;5.90;99.90
17879;DHT22;9065;51.050;13.758;2022-12-07T08:31:50;5.90;99.90
17879;DHT22;9065;51.050;13.758;2022-12-07T08:34:19;6.00;99.90
17879;DHT22;9065;51.050;13.758;2022-12-07T08:36:47;6.00;99.90
17879;DHT22;9065;51.050;13.758;2022-12-07T08:39:16;6.00;99.90
17879;DHT22;9065;51.050;13.758;2022-12-07T08:41:47;6.20;99.90
17879;DHT22;9065;51.050;13.758;2022-12-07T08:44:15;6.20;99.90
17879;DHT22;9065;51.050;13.758;2022-12-07T08:46:46;6.30;99.90
17879;DHT22;9065;51.050;13.758;2022-12-07T08:49:17;6.30;99.90
17879;DHT22;9065;51.050;13.758;2022-12-07T08:51:45;6.30;99.90
17879;DHT22;9065;51.050;13.758;2022-12-07T08:54:15;6.30;99.90
17879;DHT22;9065;51.050;13.758;2022-12-07T08:56:43;6.50;99.90
17879;DHT22;9065;51.050;13.758;2022-12-07T08:59:15;6.80;99.90
17879;DHT22;9065;51.050;13.758;2022-12-07T09:01:44;7.00;99.90
17879;DHT22;9065;51.050;13.758;2022-12-07T09:04:11;7.00;99.90
17879;DHT22;9065;51.050;13.758;2022-12-07T09:06:39;6.80;99.90
17879;DHT22;9065;51.050;13.758;2022-12-07T09:09:06;6.80;99.90
17879;DHT22;9065;51.050;13.758;2022-12-07T09:11:35;6.90;99.90
17879;DHT22;9065;51.050;13.758;2022-12-07T09:14:01;7.00;99.90
17879;DHT22;9065;51.050;13.758;2022-12-07T09:16:30;6.90;99.90
17879;DHT22;9065;51.050;13.758;2022-12-07T09:18:57;6.90;99.90
17879;DHT22;9065;51.050;13.758;2022-12-07T09:21:26;6.90;99.90
17879;DHT22;9065;51.050;13.758;2022-12-07T09:23:53;7.00;99.90
17879;DHT22;9065;51.050;13.758;2022-12-07T09:26:21;7.10;99.90
17879;DHT22;9065;51.050;13.758;2022-12-07T09:28:58;7.30;99.90
17879;DHT22;9065;51.050;13.758;2022-12-07T09:31:37;7.40;99.90
17879;DHT22;9065;51.050;13.758;2022-12-07T09:34:08;7.60;99.90
17879;DHT22;9065;51.050;13.758;2022-12-07T09:36:36;7.60;99.90
17879;DHT22;9065;51.050;13.758;2022-12-07T09:39:25;7.60;99.90
17879;DHT22;9065;51.050;13.758;2022-12-07T09:41:57;7.50;99.90
17879;DHT22;9065;51.050;13.758;2022-12-07T09:44:26;7.60;99.90
17879;DHT22;9065;51.050;13.758;2022-12-07T09:47:15;7.70;99.90
17879;DHT22;9065;51.050;13.758;2022-12-07T09:49:43;7.70;99.90
17879;DHT22;9065;51.050;13.758;2022-12-07T09:52:24;7.70;99.90
17879;DHT22;9065;51.050;13.758;2022-12-07T09:54:52;7.70;99.90
17879;DHT22;9065;51.050;13.758;2022-12-07T09:57:23;7.80;99.90
17879;DHT22;9065;51.050;13.758;2022-12-07T09:59:52;8.40;99.90
17879;DHT22;9065;51.050;13.758;2022-12-07T10:02:34;9.50;99.90
17879;DHT22;9065;51.050;13.758;2022-12-07T10:05:13;10.40;99.90
17879;DHT22;9065;51.050;13.758;2022-12-07T10:07:46;10.70;99.90
17879;DHT22;9065;51.050;13.758;2022-12-07T10:10:23;10.80;99.90
17879;DHT22;9065;51.050;13.758;2022-12-07T10:13:00;10.80;99.90
17879;DHT22;9065;51.050;13.758;2022-12-07T10:15:46;10.80;99.90
17879;DHT22;9065;51.050;13.758;2022-12-07T10:18:30;11.00;99.90
17879;DHT22;9065;51.050;13.758;2022-12-07T10:21:05;11.00;99.90
17879;DHT22;9065;51.050;13.758;2022-12-07T10:23:35;11.50;99.90
17879;DHT22;9065;51.050;13.758;2022-12-07T10:26:26;12.00;99.90
17879;DHT22;9065;51.050;13.758;2022-12-07T10:29:12;12.40;99.90
17879;DHT22;9065;51.050;13.758;2022-12-07T10:31:41;12.60;99.90
17879;DHT22;9065;51.050;13.758;2022-12-07T10:34:22;12.80;99.90
17879;DHT22;9065;51.050;13.758;2022-12-07T10:36:51;12.80;99.90
17879;DHT22;9065;51.050;13.758;2022-12-07T10:39:23;12.10;99.90
17879;DHT22;9065;51.050;13.758;2022-12-07T10:41:56;11.40;99.90
17879;DHT22;9065;51.050;13.758;2022-12-07T10:44:25;10.60;99.90
17879;DHT22;9065;51.050;13.758;2022-12-07T10:47:14;9.90;99.90
17879;DHT22;9065;51.050;13.758;2022-12-07T10:50:13;9.20;99.90
17879;DHT22;9065;51.050;13.758;2022-12-07T10:53:07;8.60;99.90
17879;DHT22;9065;51.050;13.758;2022-12-07T10:55:48;8.40;99.90
17879;DHT22;9065;51.050;13.758;2022-12-07T10:58:35;8.30;99.90
17879;DHT22;9065;51.050;13.758;2022-12-07T11:01:13;8.30;99.90
17879;DHT22;9065;51.050;13.758;2022-12-07T11:04:03;8.10;99.90
17879;DHT22;9065;51.050;13.758;2022-12-07T11:06:46;8.00;99.90
17879;DHT22;9065;51.050;13.758;2022-12-07T11:09:33;8.00;99.90
17879;DHT22;9065;51.050;13.758;2022-12-07T11:12:15;7.90;99.90
17879;DHT22;9065;51.050;13.758;2022-12-07T11:14:56;7.80;99.90
17879;DHT22;9065;51.050;13.758;2022-12-07T11:17:36;7.90;99.90
17879;DHT22;9065;51.050;13.758;2022-12-07T11:20:29;8.00;99.90
17879;DHT22;9065;51.050;13.758;2022-12-07T11:23:04;7.90;99.90
17879;DHT22;9065;51.050;13.758;2022-12-07T11:25:41;7.90;99.90
17879;DHT22;9065;51.050;13.758;2022-12-07T11:28:20;8.00;99.90
17879;DHT22;9065;51.050;13.758;2022-12-07T11:30:56;7.80;99.90
17879;DHT22;9065;51.050;13.758;2022-12-07T11:33:29;7.70;99.90
17879;DHT22;9065;51.050;13.758;2022-12-07T11:36:08;7.70;99.90
17879;DHT22;9065;51.050;13.758;2022-12-07T11:38:50;7.50;99.90
17879;DHT22;9065;51.050;13.758;2022-12-07T11:41:22;7.30;99.90
17879;DHT22;9065;51.050;13.758;2022-12-07T11:43:55;7.20;99.90
17879;DHT22;9065;51.050;13.758;2022-12-07T11:46:27;7.10;99.90
17879;DHT22;9065;51.050;13.758;2022-12-07T11:49:03;7.00;99.90
17879;DHT22;9065;51.050;13.758;2022-12-07T11:51:44;6.90;99.90
17879;DHT22;9065;51.050;13.758;2022-12-07T11:54:19;7.00;99.90
17879;DHT22;9065;51.050;13.758;2022-12-07T11:56:48;7.10;99.90
17879;DHT22;9065;51.050;13.758;2022-12-07T11:59:22;7.20;99.90
17879;DHT22;9065;51.050;13.758;2022-12-07T12:01:53;7.30;99.90
17879;DHT22;9065;51.050;13.758;2022-12-07T12:04:49;7.30;99.90
17879;DHT22;9065;51.050;13.758;2022-12-07T12:07:22;7.10;99.90
17879;DHT22;9065;51.050;13.758;2022-12-07T12:09:54;7.20;99.90
17879;DHT22;9065;51.050;13.758;2022-12-07T12:12:38;7.20;99.90
17879;DHT22;9065;51.050;13.758;2022-12-07T12:15:22;7.20;99.90
17879;DHT22;9065;51.050;13.758;2022-12-07T12:21:02;7.60;99.90
17879;DHT22;9065;51.050;13.758;2022-12-07T12:23:37;7.80;99.90
17879;DHT22;9065;51.050;13.758;2022-12-07T12:26:16;7.80;99.90
17879;DHT22;9065;51.050;13.758;2022-12-07T12:28:52;7.60;99.90
17879;DHT22;9065;51.050;13.758;2022-12-07T12:31:40;7.40;99.90
17879;DHT22;9065;51.050;13.758;2022-12-07T12:34:30;7.40;99.90
17879;DHT22;9065;51.050;13.758;2022-12-07T12:36:57;7.40;99.90
17879;DHT22;9065;51.050;13.758;2022-12-07T12:39:26;7.20;99.90
17879;DHT22;9065;51.050;13.758;2022-12-07T12:42:02;7.20;99.90
17879;DHT22;9065;51.050;13.758;2022-12-07T12:47:54;7.30;99.90
17879;DHT22;9065;51.050;13.758;2022-12-07T12:50:31;7.30;99.90
17879;DHT22;9065;51.050;13.758;2022-12-07T12:53:14;7.20;99.90
17879;DHT22;9065;51.050;13.758;2022-12-07T12:56:20;7.00;99.90
17879;DHT22;9065;51.050;13.758;2022-12-07T12:59:22;6.90;99.90
17879;DHT22;9065;51.050;13.758;2022-12-07T13:01:54;7.00;99.90
17879;DHT22;9065;51.050;13.758;2022-12-07T13:07:58;6.60;99.90
17879;DHT22;9065;51.050;13.758;2022-12-07T13:10:42;6.20;99.90
17879;DHT22;9065;51.050;13.758;2022-12-07T13:13:30;6.00;99.90
17879;DHT22;9065;51.050;13.758;2022-12-07T13:22:43;5.90;99.90
17879;DHT22;9065;51.050;13.758;2022-12-07T13:25:12;5.90;99.90
17879;DHT22;9065;51.050;13.758;2022-12-07T13:27:51;5.90;99.90
17879;DHT22;9065;51.050;13.758;2022-12-07T13:30:22;5.90;99.90
17879;DHT22;9065;51.050;13.758;2022-12-07T13:32:58;5.90;99.90
17879;DHT22;9065;51.050;13.758;2022-12-07T13:35:31;5.80;99.90
17879;DHT22;9065;51.050;13.758;2022-12-07T13:38:23;5.80;99.90
17879;DHT22;9065;51.050;13.758;2022-12-07T13:41:15;5.60;99.90
17879;DHT22;9065;51.050;13.758;2022-12-07T13:43:49;5.70;99.90
17879;DHT22;9065;51.050;13.758;2022-12-07T13:46:20;5.60;99.90
17879;DHT22;9065;51.050;13.758;2022-12-07T13:49:16;5.60;99.90
17879;DHT22;9065;51.050;13.758;2022-12-07T13:51:44;5.60;99.90
17879;DHT22;9065;51.050;13.758;2022-12-07T13:54:15;5.70;99.90
17879;DHT22;9065;51.050;13.758;2022-12-07T13:56:46;5.70;99.90
17879;DHT22;9065;51.050;13.758;2022-12-07T13:59:18;5.80;99.90
17879;DHT22;9065;51.050;13.758;2022-12-07T14:01:47;5.80;99.90
17879;DHT22;9065;51.050;13.758;2022-12-07T14:04:26;6.00;99.90
17879;DHT22;9065;51.050;13.758;2022-12-07T14:06:55;6.10;99.90
17879;DHT22;9065;51.050;13.758;2022-12-07T14:09:26;6.10;99.90
17879;DHT22;9065;51.050;13.758;2022-12-07T14:11:54;6.10;99.90
17879;DHT22;9065;51.050;13.758;2022-12-07T14:14:30;6.20;99.90
17879;DHT22;9065;51.050;13.758;2022-12-07T14:17:01;6.30;99.90
17879;DHT22;9065;51.050;13.758;2022-12-07T14:19:46;6.40;99.90
17879;DHT22;9065;51.050;13.758;2022-12-07T14:22:25;6.40;99.90
17879;DHT22;9065;51.050;13.758;2022-12-07T14:27:55;6.50;99.90
17879;DHT22;9065;51.050;13.758;2022-12-07T14:30:30;6.50;99.90
17879;DHT22;9065;51.050;13.758;2022-12-07T14:33:02;6.60;99.90
17879;DHT22;9065;51.050;13.758;2022-12-07T14:35:31;6.60;99.90
17879;DHT22;9065;51.050;13.758;2022-12-07T14:37:58;6.70;99.90
17879;DHT22;9065;51.050;13.758;2022-12-07T14:40:29;6.70;99.90
17879;DHT22;9065;51.050;13.758;2022-12-07T14:43:01;6.60;99.90
17879;DHT22;9065;51.050;13.758;2022-12-07T14:45:28;6.70;99.90
17879;DHT22;9065;51.050;13.758;2022-12-07T14:47:57;6.70;99.90
17879;DHT22;9065;51.050;13.758;2022-12-07T14:50:25;6.70;99.90
17879;DHT22;9065;51.050;13.758;2022-12-07T14:52:55;6.80;99.90
17879;DHT22;9065;51.050;13.758;2022-12-07T14:55:26;6.80;99.90
17879;DHT22;9065;51.050;13.758;2022-12-07T14:57:56;6.90;99.90
17879;DHT22;9065;51.050;13.758;2022-12-07T15:00:24;7.00;99.90
17879;DHT22;9065;51.050;13.758;2022-12-07T15:02:54;7.00;99.90
17879;DHT22;9065;51.050;13.758;2022-12-07T15:05:21;6.90;99.90
17879;DHT22;9065;51.050;13.758;2022-12-07T15:07:50;6.90;99.90
17879;DHT22;9065;51.050;13.758;2022-12-07T15:10:20;6.90;99.90
17879;DHT22;9065;51.050;13.758;2022-12-07T15:12:47;6.90;99.90
17879;DHT22;9065;51.050;13.758;2022-12-07T15:15:15;6.90;99.90
17879;DHT22;9065;51.050;13.758;2022-12-07T15:17:42;6.90;99.90
17879;DHT22;9065;51.050;13.758;2022-12-07T15:20:17;6.80;99.90
17879;DHT22;9065;51.050;13.758;2022-12-07T15:22:45;6.80;99.90
17879;DHT22;9065;51.050;13.758;2022-12-07T15:25:16;6.90;99.90
17879;DHT22;9065;51.050;13.758;2022-12-07T15:27:43;6.70;99.90
17879;DHT22;9065;51.050;13.758;2022-12-07T15:30:11;6.70;99.90
17879;DHT22;9065;51.050;13.758;2022-12-07T15:32:40;6.80;99.90
17879;DHT22;9065;51.050;13.758;2022-12-07T15:35:09;6.80;99.90
17879;DHT22;9065;51.050;13.758;2022-12-07T15:37:36;6.90;99.90
17879;DHT22;9065;51.050;13.758;2022-12-07T15:40:07;6.90;99.90
17879;DHT22;9065;51.050;13.758;2022-12-07T15:42:35;6.90;99.90
17879;DHT22;9065;51.050;13.758;2022-12-07T15:45:04;6.80;99.90
17879;DHT22;9065;51.050;13.758;2022-12-07T15:47:30;6.80;99.90
17879;DHT22;9065;51.050;13.758;2022-12-07T15:50:12;6.80;99.90
17879;DHT22;9065;51.050;13.758;2022-12-07T15:52:45;6.70;99.90
17879;DHT22;9065;51.050;13.758;2022-12-07T15:55:12;6.80;99.90
17879;DHT22;9065;51.050;13.758;2022-12-07T15:57:40;6.80;99.90
17879;DHT22;9065;51.050;13.758;2022-12-07T16:00:09;6.70;99.90
17879;DHT22;9065;51.050;13.758;2022-12-07T16:02:37;6.80;99.90
17879;DHT22;9065;51.050;13.758;2022-12-07T16:05:04;6.80;99.90
17879;DHT22;9065;51.050;13.758;2022-12-07T16:07:32;6.70;99.90
17879;DHT22;9065;51.050;13.758;2022-12-07T16:09:59;6.60;99.90
17879;DHT22;9065;51.050;13.758;2022-12-07T16:12:28;6.60;99.90
17879;DHT22;9065;51.050;13.758;2022-12-07T16:14:55;6.50;99.90
17879;DHT22;9065;51.050;13.758;2022-12-07T16:17:22;6.50;99.90
17879;DHT22;9065;51.050;13.758;2022-12-07T16:19:51;6.50;99.90
17879;DHT22;9065;51.050;13.758;2022-12-07T16:22:20;6.50;99.90
17879;DHT22;9065;51.050;13.758;2022-12-07T16:24:48;6.50;99.90
17879;DHT22;9065;51.050;13.758;2022-12-07T16:27:15;6.50;99.90
17879;DHT22;9065;51.050;13.758;2022-12-07T16:29:43;6.50;99.90
17879;DHT22;9065;51.050;13.758;2022-12-07T16:32:11;6.50;99.90
17879;DHT22;9065;51.050;13.758;2022-12-07T16:34:39;6.40;99.90
17879;DHT22;9065;51.050;13.758;2022-12-07T16:37:08;6.40;99.90
17879;DHT22;9065;51.050;13.758;2022-12-07T16:39:37;6.40;99.90
17879;DHT22;9065;51.050;13.758;2022-12-07T16:42:06;6.50;99.90